PWSweather.com
Personal Weather Stations
Station Observations
IK5PWS
LuccaIT 55100

LuccaIT 55100

Lat: 43.885743, Lon: 10.519805

Elevation: 100

Station Type: PCE-FWS20

Latest ConditionsUpdated 5:59:44 AM GMT+01:01 Thursday, Apr 25, 2019
Currently Today's Max Today's Min Today's Average
Temperature 55.6°F13.1°C 58.5°F14.7°C 51.8°F11.0°C 53.8°F12.1°C
Dew Point 51.5°F10.8°C 52.7°F11.5°C 36.6°F2.6°C 50.7°F10.4°C
Winds 5.4 mph NW8.7 kmh NW 10.7 mph -17.2 kmh - - 1.7 mph 2.7 kmh
Wind Gusts 7.6 mph12.2 kmh 13.7 mph22.0 kmh - -
Humidity 86% 93% 44% 89%
Pressure 30.11 in1019.6 mb 30.12 in1020.0 mb 29.89 in1012.2 mb -
Hour Temp Dew Point Humidity Winds Wind Gusts Pressure Precip Precip Rate Daily Precip Total
05:59 AM 55.6°F13.1°C 51.5°F10.8°C 86% 5.4 mph NW8.7 kmh NW 7.6 mph12.2 kmh 30.11 in1019.6 mb 0.00 in0.0 mm 0.00 in0.0 mm 1.28 in32.5 mm
05:58 AM 55.6°F13.1°C 51.8°F11.0°C 87% 6.9 mph NNW11.1 kmh NNW 9.8 mph15.8 kmh 30.11 in1019.6 mb 0.00 in0.0 mm 0.00 in0.0 mm 1.28 in32.5 mm
05:57 AM 55.6°F13.1°C 51.8°F11.0°C 87% 9.2 mph NW14.8 kmh NW 13.0 mph20.9 kmh 30.11 in1019.6 mb 0.00 in0.0 mm 0.00 in0.0 mm 1.28 in32.5 mm
05:56 AM 55.6°F13.1°C 51.8°F11.0°C 87% 5.4 mph NW8.7 kmh NW 7.6 mph12.2 kmh 30.11 in1019.6 mb 0.00 in0.0 mm 0.00 in0.0 mm 1.28 in32.5 mm
05:55 AM 55.6°F13.1°C 51.8°F11.0°C 87% 7.6 mph NNW12.2 kmh NNW 10.7 mph17.2 kmh 30.11 in1019.6 mb 0.00 in0.0 mm 0.00 in0.0 mm 1.28 in32.5 mm
05:54 AM 55.4°F13.0°C 51.9°F11.1°C 88% 8.3 mph NW13.4 kmh NW 13.0 mph20.9 kmh 30.11 in1019.6 mb 0.00 in0.0 mm 0.00 in0.0 mm 1.28 in32.5 mm
05:53 AM 55.4°F13.0°C 51.9°F11.1°C 88% 6.0 mph NW9.7 kmh NW 12.1 mph19.5 kmh 30.11 in1019.6 mb 0.00 in0.0 mm 0.00 in0.0 mm 1.28 in32.5 mm
05:52 AM 55.4°F13.0°C 51.9°F11.1°C 88% 5.4 mph NW8.7 kmh NW 9.2 mph14.8 kmh 30.11 in1019.6 mb 0.00 in0.0 mm 0.00 in0.0 mm 1.28 in32.5 mm
05:51 AM 55.4°F13.0°C 52.2°F11.2°C 89% 8.3 mph 13.4 kmh 12.1 mph19.5 kmh 30.11 in1019.6 mb 0.00 in0.0 mm 0.00 in0.0 mm 1.28 in32.5 mm
05:50 AM 55.2°F12.9°C 52.3°F11.3°C 90% 10.7 mph WNW17.2 kmh WNW 13.7 mph22.0 kmh 30.11 in1019.6 mb 0.00 in0.0 mm 0.00 in0.0 mm 1.28 in32.5 mm
05:49 AM 55.0°F12.8°C 52.2°F11.2°C 90% 8.3 mph NW13.4 kmh NW 12.1 mph19.5 kmh 30.11 in1019.6 mb 0.00 in0.0 mm 0.00 in0.0 mm 1.28 in32.5 mm
05:48 AM 55.0°F12.8°C 52.2°F11.2°C 90% 9.2 mph WNW14.8 kmh WNW 12.1 mph19.5 kmh 30.11 in1019.6 mb 0.00 in0.0 mm 0.00 in0.0 mm 1.28 in32.5 mm
05:47 AM 54.9°F12.7°C 52.3°F11.3°C 91% 6.9 mph 11.1 kmh 9.2 mph14.8 kmh 30.11 in1019.6 mb 0.00 in0.0 mm 0.00 in0.0 mm 1.28 in32.5 mm
05:46 AM 54.9°F12.7°C 52.3°F11.3°C 91% 6.9 mph NW11.1 kmh NW 10.7 mph17.2 kmh 30.11 in1019.6 mb 0.00 in0.0 mm 0.00 in0.0 mm 1.28 in32.5 mm
05:45 AM 54.9°F12.7°C 52.3°F11.3°C 91% 6.9 mph 11.1 kmh 12.1 mph19.5 kmh 30.11 in1019.6 mb 0.00 in0.0 mm 0.00 in0.0 mm 1.28 in32.5 mm
05:44 AM 54.7°F12.6°C 52.1°F11.2°C 91% 6.0 mph SE9.7 kmh SE 11.4 mph18.3 kmh 30.11 in1019.6 mb 0.00 in0.0 mm 0.00 in0.0 mm 1.28 in32.5 mm
05:43 AM 54.7°F12.6°C 52.1°F11.2°C 91% 7.6 mph NNW12.2 kmh NNW 9.2 mph14.8 kmh 30.11 in1019.6 mb 0.00 in0.0 mm 0.00 in0.0 mm 1.28 in32.5 mm
05:42 AM 54.5°F12.5°C 52.2°F11.2°C 92% 7.6 mph NNW12.2 kmh NNW 11.4 mph18.3 kmh 30.11 in1019.6 mb 0.00 in0.0 mm 0.00 in0.0 mm 1.28 in32.5 mm
05:41 AM 54.5°F12.5°C 52.2°F11.2°C 92% 7.6 mph 12.2 kmh 11.4 mph18.3 kmh 30.11 in1019.6 mb 0.00 in0.0 mm 0.00 in0.0 mm 1.28 in32.5 mm
05:40 AM 54.5°F12.5°C 52.2°F11.2°C 92% 6.9 mph NW11.1 kmh NW 9.8 mph15.8 kmh 30.11 in1019.6 mb 0.00 in0.0 mm 0.00 in0.0 mm 1.28 in32.5 mm
05:39 AM 54.5°F12.5°C 52.2°F11.2°C 92% 7.6 mph NW12.2 kmh NW 9.2 mph14.8 kmh 30.11 in1019.6 mb 0.00 in0.0 mm 0.00 in0.0 mm 1.28 in32.5 mm
05:38 AM 54.3°F12.4°C 52.0°F11.1°C 92% 4.5 mph NW7.2 kmh NW 8.3 mph13.4 kmh 30.11 in1019.6 mb 0.00 in0.0 mm 0.00 in0.0 mm 1.28 in32.5 mm
05:37 AM 54.3°F12.4°C 52.0°F11.1°C 92% 6.0 mph WNW9.7 kmh WNW 8.3 mph13.4 kmh 30.11 in1019.6 mb 0.00 in0.0 mm 0.00 in0.0 mm 1.28 in32.5 mm
05:36 AM 54.3°F12.4°C 52.0°F11.1°C 92% 3.8 mph NW6.1 kmh NW 6.0 mph9.7 kmh 30.11 in1019.6 mb 0.00 in0.0 mm 0.00 in0.0 mm 1.28 in32.5 mm
05:35 AM 54.3°F12.4°C 52.0°F11.1°C 92% 3.1 mph 5.0 kmh 6.0 mph9.7 kmh 30.11 in1019.6 mb 0.00 in0.0 mm 0.00 in0.0 mm 1.28 in32.5 mm
05:34 AM 54.1°F12.3°C 51.9°F11.1°C 92% 5.4 mph NW8.7 kmh NW 6.9 mph11.1 kmh 30.11 in1019.6 mb 0.00 in0.0 mm 0.00 in0.0 mm 1.28 in32.5 mm
05:33 AM 54.1°F12.3°C 51.9°F11.1°C 92% 4.5 mph NW7.2 kmh NW 7.6 mph12.2 kmh 30.11 in1019.6 mb 0.00 in0.0 mm 0.00 in0.0 mm 1.28 in32.5 mm
05:32 AM 54.1°F12.3°C 51.9°F11.1°C 92% 3.8 mph WNW6.1 kmh WNW 5.4 mph8.7 kmh 30.11 in1019.6 mb 0.00 in0.0 mm 0.00 in0.0 mm 1.28 in32.5 mm
05:31 AM 54.0°F12.2°C 51.7°F10.9°C 92% 7.6 mph WNW12.2 kmh WNW 9.8 mph15.8 kmh 30.11 in1019.6 mb 0.00 in0.0 mm 0.00 in0.0 mm 1.28 in32.5 mm
05:30 AM 53.8°F12.1°C 51.5°F10.8°C 92% 4.5 mph 7.2 kmh 6.0 mph9.7 kmh 30.11 in1019.6 mb 0.00 in0.0 mm 0.00 in0.0 mm 1.28 in32.5 mm
05:29 AM 53.8°F12.1°C 51.5°F10.8°C 92% 4.5 mph 7.2 kmh 5.4 mph8.7 kmh 30.11 in1019.6 mb 0.00 in0.0 mm 0.00 in0.0 mm 1.28 in32.5 mm
05:28 AM 53.8°F12.1°C 51.5°F10.8°C 92% 5.4 mph NNW8.7 kmh NNW 9.2 mph14.8 kmh 30.11 in1019.6 mb 0.00 in0.0 mm 0.00 in0.0 mm 1.28 in32.5 mm
05:27 AM 53.6°F12.0°C 51.3°F10.7°C 92% 6.0 mph 9.7 kmh 8.3 mph13.4 kmh 30.11 in1019.6 mb 0.00 in0.0 mm 0.00 in0.0 mm 1.28 in32.5 mm
05:26 AM 53.6°F12.0°C 51.3°F10.7°C 92% 3.8 mph NW6.1 kmh NW 6.0 mph9.7 kmh 30.11 in1019.6 mb 0.00 in0.0 mm 0.00 in0.0 mm 1.28 in32.5 mm
05:25 AM 53.6°F12.0°C 51.3°F10.7°C 92% 5.4 mph WNW8.7 kmh WNW 7.6 mph12.2 kmh 30.11 in1019.6 mb 0.00 in0.0 mm 0.00 in0.0 mm 1.28 in32.5 mm
05:24 AM 53.6°F12.0°C 51.3°F10.7°C 92% 5.4 mph 8.7 kmh 7.6 mph12.2 kmh 30.11 in1019.6 mb 0.00 in0.0 mm 0.00 in0.0 mm 1.28 in32.5 mm
05:23 AM 53.6°F12.0°C 51.3°F10.7°C 92% 3.8 mph NW6.1 kmh NW 5.4 mph8.7 kmh 30.11 in1019.6 mb 0.00 in0.0 mm 0.00 in0.0 mm 1.28 in32.5 mm
05:22 AM 53.8°F12.1°C 51.5°F10.8°C 92% 3.1 mph 5.0 kmh 6.0 mph9.7 kmh 30.11 in1019.6 mb 0.00 in0.0 mm 0.00 in0.0 mm 1.28 in32.5 mm
05:21 AM 53.8°F12.1°C 51.5°F10.8°C 92% 3.8 mph NNW6.1 kmh NNW 6.0 mph9.7 kmh 30.11 in1019.6 mb 0.00 in0.0 mm 0.00 in0.0 mm 1.28 in32.5 mm
05:20 AM 53.8°F12.1°C 51.5°F10.8°C 92% 0.7 mph NW1.1 kmh NW 3.1 mph5.0 kmh 30.12 in1020.0 mb 0.00 in0.0 mm 0.00 in0.0 mm 1.28 in32.5 mm
05:19 AM 53.8°F12.1°C 51.5°F10.8°C 92% 3.1 mph W5.0 kmh W 5.4 mph8.7 kmh 30.11 in1019.6 mb 0.00 in0.0 mm 0.00 in0.0 mm 1.28 in32.5 mm
05:18 AM 53.6°F12.0°C 51.3°F10.7°C 92% 7.6 mph 12.2 kmh 9.2 mph14.8 kmh 30.11 in1019.6 mb 0.00 in0.0 mm 0.00 in0.0 mm 1.28 in32.5 mm
05:17 AM 53.6°F12.0°C 51.3°F10.7°C 92% 5.4 mph NNE8.7 kmh NNE 6.9 mph11.1 kmh 30.11 in1019.6 mb 0.00 in0.0 mm 0.00 in0.0 mm 1.28 in32.5 mm
05:16 AM 53.6°F12.0°C 51.3°F10.7°C 92% 4.5 mph 7.2 kmh 6.9 mph11.1 kmh 30.11 in1019.6 mb 0.00 in0.0 mm 0.00 in0.0 mm 1.28 in32.5 mm
05:15 AM 53.6°F12.0°C 51.3°F10.7°C 92% 4.5 mph NNW7.2 kmh NNW 6.0 mph9.7 kmh 30.11 in1019.6 mb 0.00 in0.0 mm 0.00 in0.0 mm 1.28 in32.5 mm
05:14 AM 53.4°F11.9°C 51.5°F10.8°C 93% 3.8 mph 6.1 kmh 5.4 mph8.7 kmh 30.12 in1020.0 mb 0.00 in0.0 mm 0.00 in0.0 mm 1.28 in32.5 mm
05:13 AM 53.4°F11.9°C 51.5°F10.8°C 93% 3.8 mph 6.1 kmh 5.4 mph8.7 kmh 30.11 in1019.6 mb 0.00 in0.0 mm 0.00 in0.0 mm 1.28 in32.5 mm
05:12 AM 53.4°F11.9°C 51.5°F10.8°C 93% 3.8 mph 6.1 kmh 5.4 mph8.7 kmh 30.11 in1019.6 mb 0.00 in0.0 mm 0.00 in0.0 mm 1.28 in32.5 mm
05:11 AM 53.4°F11.9°C 51.5°F10.8°C 93% 3.1 mph 5.0 kmh 4.5 mph7.2 kmh 30.11 in1019.6 mb 0.00 in0.0 mm 0.00 in0.0 mm 1.28 in32.5 mm
05:10 AM 53.2°F11.8°C 51.3°F10.7°C 93% 3.1 mph 5.0 kmh 6.0 mph9.7 kmh 30.11 in1019.6 mb 0.00 in0.0 mm 0.00 in0.0 mm 1.28 in32.5 mm
05:09 AM 52.9°F11.6°C 50.9°F10.5°C 93% 4.5 mph 7.2 kmh 6.0 mph9.7 kmh 30.11 in1019.6 mb 0.00 in0.0 mm 0.00 in0.0 mm 1.28 in32.5 mm
05:08 AM 52.9°F11.6°C 50.9°F10.5°C 93% 4.5 mph 7.2 kmh 6.0 mph9.7 kmh 30.11 in1019.6 mb 0.00 in0.0 mm 0.00 in0.0 mm 1.28 in32.5 mm
05:07 AM 52.9°F11.6°C 50.9°F10.5°C 93% 4.5 mph 7.2 kmh 6.0 mph9.7 kmh 30.11 in1019.6 mb 0.00 in0.0 mm 0.00 in0.0 mm 1.28 in32.5 mm
05:06 AM 52.5°F11.4°C 50.3°F10.2°C 92% Calm Calm -- 30.11 in1019.6 mb 0.00 in0.0 mm 0.00 in0.0 mm 1.28 in32.5 mm
05:05 AM 52.5°F11.4°C 50.3°F10.2°C 92% Calm Calm -- 30.11 in1019.6 mb 0.00 in0.0 mm 0.00 in0.0 mm 1.28 in32.5 mm
05:04 AM 52.5°F11.4°C 50.3°F10.2°C 92% Calm Calm -- 30.11 in1019.6 mb 0.00 in0.0 mm 0.00 in0.0 mm 1.28 in32.5 mm
05:03 AM 52.5°F11.4°C 50.3°F10.2°C 92% Calm Calm -- 30.11 in1019.6 mb 0.00 in0.0 mm 0.00 in0.0 mm 1.28 in32.5 mm
05:02 AM 52.5°F11.4°C 50.3°F10.2°C 92% Calm Calm -- 30.11 in1019.6 mb 0.00 in0.0 mm 0.00 in0.0 mm 1.28 in32.5 mm
05:01 AM 52.5°F11.4°C 50.3°F10.2°C 92% Calm Calm -- 30.11 in1019.6 mb 0.00 in0.0 mm 0.00 in0.0 mm 1.28 in32.5 mm
05:00 AM 52.5°F11.4°C 50.3°F10.2°C 92% Calm Calm -- 30.11 in1019.6 mb 0.00 in0.0 mm 0.00 in0.0 mm 1.28 in32.5 mm
04:59 AM 52.5°F11.4°C 50.3°F10.2°C 92% Calm Calm -- 30.11 in1019.6 mb 0.00 in0.0 mm 0.00 in0.0 mm 1.28 in32.5 mm
04:58 AM 52.5°F11.4°C 50.3°F10.2°C 92% 1.6 mph SW2.6 kmh SW 2.2 mph3.5 kmh 30.11 in1019.6 mb 0.00 in0.0 mm 0.00 in0.0 mm 1.28 in32.5 mm
04:57 AM 52.5°F11.4°C 50.3°F10.2°C 92% 1.6 mph 2.6 kmh 3.1 mph5.0 kmh 30.11 in1019.6 mb 0.00 in0.0 mm 0.00 in0.0 mm 1.28 in32.5 mm
04:56 AM 52.5°F11.4°C 50.3°F10.2°C 92% 1.6 mph 2.6 kmh 3.1 mph5.0 kmh 30.11 in1019.6 mb 0.00 in0.0 mm 0.00 in0.0 mm 1.28 in32.5 mm
04:55 AM 52.5°F11.4°C 50.3°F10.2°C 92% 1.6 mph 2.6 kmh 3.1 mph5.0 kmh 30.11 in1019.6 mb 0.00 in0.0 mm 0.00 in0.0 mm 1.28 in32.5 mm
04:54 AM 52.5°F11.4°C 50.3°F10.2°C 92% Calm Calm -- 30.11 in1019.6 mb 0.00 in0.0 mm 0.00 in0.0 mm 1.28 in32.5 mm
04:53 AM 52.5°F11.4°C 50.3°F10.2°C 92% Calm Calm -- 30.12 in1020.0 mb 0.00 in0.0 mm 0.00 in0.0 mm 1.28 in32.5 mm
04:52 AM 52.5°F11.4°C 50.3°F10.2°C 92% Calm Calm -- 30.11 in1019.6 mb 0.00 in0.0 mm 0.00 in0.0 mm 1.28 in32.5 mm
04:51 AM 52.7°F11.5°C 50.4°F10.2°C 92% Calm Calm -- 30.11 in1019.6 mb 0.00 in0.0 mm 0.00 in0.0 mm 1.28 in32.5 mm
04:50 AM 52.7°F11.5°C 50.4°F10.2°C 92% Calm Calm 0.7 mph1.1 kmh 30.12 in1020.0 mb 0.00 in0.0 mm 0.00 in0.0 mm 1.28 in32.5 mm
04:49 AM 52.7°F11.5°C 50.4°F10.2°C 92% Calm Calm -- 30.12 in1020.0 mb 0.00 in0.0 mm 0.00 in0.0 mm 1.28 in32.5 mm
04:48 AM 52.5°F11.4°C 50.3°F10.2°C 92% 1.6 mph 2.6 kmh 3.1 mph5.0 kmh 30.11 in1019.6 mb 0.00 in0.0 mm 0.00 in0.0 mm 1.28 in32.5 mm
04:47 AM 52.5°F11.4°C 50.3°F10.2°C 92% 1.6 mph 2.6 kmh 3.1 mph5.0 kmh 30.11 in1019.6 mb 0.00 in0.0 mm 0.00 in0.0 mm 1.28 in32.5 mm
04:46 AM 52.5°F11.4°C 50.3°F10.2°C 92% Calm Calm 1.6 mph2.6 kmh 30.11 in1019.6 mb 0.00 in0.0 mm 0.00 in0.0 mm 1.28 in32.5 mm
04:45 AM 52.5°F11.4°C 50.3°F10.2°C 92% Calm Calm -- 30.11 in1019.6 mb 0.00 in0.0 mm 0.00 in0.0 mm 1.28 in32.5 mm
04:44 AM 52.3°F11.3°C 50.1°F10.1°C 92% Calm Calm -- 30.11 in1019.6 mb 0.00 in0.0 mm 0.00 in0.0 mm 1.28 in32.5 mm
04:43 AM 52.3°F11.3°C 50.1°F10.1°C 92% Calm Calm -- 30.11 in1019.6 mb 0.00 in0.0 mm 0.00 in0.0 mm 1.28 in32.5 mm
04:42 AM 51.8°F11.0°C 49.6°F9.8°C 92% 2.2 mph NNW3.5 kmh NNW 4.5 mph7.2 kmh 30.11 in1019.6 mb 0.00 in0.0 mm 0.00 in0.0 mm 1.28 in32.5 mm
04:41 AM 51.8°F11.0°C 49.6°F9.8°C 92% 2.2 mph NNW3.5 kmh NNW 4.5 mph7.2 kmh 30.11 in1019.6 mb 0.00 in0.0 mm 0.00 in0.0 mm 1.28 in32.5 mm
04:40 AM 51.8°F11.0°C 49.6°F9.8°C 92% 2.2 mph NNW3.5 kmh NNW 4.5 mph7.2 kmh 30.11 in1019.6 mb 0.00 in0.0 mm 0.00 in0.0 mm 1.28 in32.5 mm
04:39 AM 52.0°F11.1°C 49.7°F9.8°C 92% Calm Calm 0.7 mph1.1 kmh 30.11 in1019.6 mb 0.00 in0.0 mm 0.00 in0.0 mm 1.28 in32.5 mm
04:38 AM 52.0°F11.1°C 49.7°F9.8°C 92% Calm Calm -- 30.11 in1019.6 mb 0.00 in0.0 mm 0.00 in0.0 mm 1.28 in32.5 mm
04:37 AM 51.8°F11.0°C 49.6°F9.8°C 92% Calm Calm -- 30.11 in1019.6 mb 0.00 in0.0 mm 0.00 in0.0 mm 1.28 in32.5 mm
04:36 AM 51.8°F11.0°C 49.6°F9.8°C 92% Calm Calm -- 30.11 in1019.6 mb 0.00 in0.0 mm 0.00 in0.0 mm 1.28 in32.5 mm
04:35 AM 51.8°F11.0°C 49.6°F9.8°C 92% Calm Calm 0.7 mph1.1 kmh 30.11 in1019.6 mb 0.00 in0.0 mm 0.00 in0.0 mm 1.28 in32.5 mm
04:34 AM 51.8°F11.0°C 49.3°F9.6°C 91% Calm Calm 1.6 mph2.6 kmh 30.11 in1019.6 mb 0.00 in0.0 mm 0.00 in0.0 mm 1.28 in32.5 mm
04:33 AM 51.8°F11.0°C 49.3°F9.6°C 91% Calm Calm -- 30.11 in1019.6 mb 0.00 in0.0 mm 0.00 in0.0 mm 1.28 in32.5 mm
04:32 AM 51.8°F11.0°C 49.3°F9.6°C 91% Calm Calm -- 30.11 in1019.6 mb 0.00 in0.0 mm 0.00 in0.0 mm 1.28 in32.5 mm
04:31 AM 51.8°F11.0°C 49.3°F9.6°C 91% Calm Calm -- 30.11 in1019.6 mb 0.00 in0.0 mm 0.00 in0.0 mm 1.28 in32.5 mm
04:30 AM 51.8°F11.0°C 49.3°F9.6°C 91% 0.7 mph S1.1 kmh S 1.6 mph2.6 kmh 30.11 in1019.6 mb 0.00 in0.0 mm 0.00 in0.0 mm 1.28 in32.5 mm
04:29 AM 52.0°F11.1°C 49.4°F9.7°C 91% Calm Calm 0.7 mph1.1 kmh 30.11 in1019.6 mb 0.00 in0.0 mm 0.00 in0.0 mm 1.28 in32.5 mm
04:28 AM 52.0°F11.1°C 49.4°F9.7°C 91% Calm Calm -- 30.11 in1019.6 mb 0.00 in0.0 mm 0.00 in0.0 mm 1.28 in32.5 mm
04:27 AM 52.2°F11.2°C 49.9°F9.9°C 92% Calm Calm 0.7 mph1.1 kmh 30.11 in1019.6 mb 0.00 in0.0 mm 0.00 in0.0 mm 1.28 in32.5 mm
04:26 AM 52.3°F11.3°C 50.1°F10.1°C 92% Calm Calm -- 30.11 in1019.6 mb 0.00 in0.0 mm 0.00 in0.0 mm 1.28 in32.5 mm
04:25 AM 52.3°F11.3°C 50.1°F10.1°C 92% Calm Calm -- 30.11 in1019.6 mb 0.00 in0.0 mm 0.00 in0.0 mm 1.28 in32.5 mm
04:24 AM 52.3°F11.3°C 50.1°F10.1°C 92% Calm Calm -- 30.11 in1019.6 mb 0.00 in0.0 mm 0.00 in0.0 mm 1.28 in32.5 mm
04:23 AM 52.5°F11.4°C 50.3°F10.2°C 92% Calm Calm -- 30.11 in1019.6 mb 0.00 in0.0 mm 0.00 in0.0 mm 1.28 in32.5 mm
04:22 AM 52.5°F11.4°C 50.3°F10.2°C 92% Calm Calm 1.6 mph2.6 kmh 30.11 in1019.6 mb 0.00 in0.0 mm 0.00 in0.0 mm 1.28 in32.5 mm
04:21 AM 52.5°F11.4°C 50.3°F10.2°C 92% Calm Calm 1.6 mph2.6 kmh 30.11 in1019.6 mb 0.00 in0.0 mm 0.00 in0.0 mm 1.28 in32.5 mm
04:20 AM 52.5°F11.4°C 50.3°F10.2°C 92% Calm Calm -- 30.11 in1019.6 mb 0.00 in0.0 mm 0.00 in0.0 mm 1.28 in32.5 mm
04:19 AM 52.5°F11.4°C 50.3°F10.2°C 92% Calm Calm -- 30.11 in1019.6 mb 0.00 in0.0 mm 0.00 in0.0 mm 1.28 in32.5 mm
04:18 AM 52.5°F11.4°C 50.3°F10.2°C 92% Calm Calm -- 30.11 in1019.6 mb 0.00 in0.0 mm 0.00 in0.0 mm 1.28 in32.5 mm
04:17 AM 52.5°F11.4°C 50.3°F10.2°C 92% Calm Calm -- 30.11 in1019.6 mb 0.00 in0.0 mm 0.00 in0.0 mm 1.28 in32.5 mm
04:16 AM 52.5°F11.4°C 50.3°F10.2°C 92% Calm Calm 0.7 mph1.1 kmh 30.11 in1019.6 mb 0.00 in0.0 mm 0.00 in0.0 mm 1.28 in32.5 mm
04:15 AM 52.5°F11.4°C 50.3°F10.2°C 92% Calm Calm 0.7 mph1.1 kmh 30.11 in1019.6 mb 0.00 in0.0 mm 0.00 in0.0 mm 1.28 in32.5 mm
04:14 AM 52.5°F11.4°C 50.3°F10.2°C 92% Calm Calm 0.7 mph1.1 kmh 30.11 in1019.6 mb 0.00 in0.0 mm 0.00 in0.0 mm 1.28 in32.5 mm
04:13 AM 52.5°F11.4°C 50.3°F10.2°C 92% Calm Calm -- 30.11 in1019.6 mb 0.00 in0.0 mm 0.00 in0.0 mm 1.28 in32.5 mm
04:12 AM 52.5°F11.4°C 50.3°F10.2°C 92% Calm Calm 1.6 mph2.6 kmh 30.11 in1019.6 mb 0.00 in0.0 mm 0.00 in0.0 mm 1.28 in32.5 mm
04:11 AM 52.5°F11.4°C 50.3°F10.2°C 92% 0.7 mph S1.1 kmh S 1.6 mph2.6 kmh 30.11 in1019.6 mb 0.00 in0.0 mm 0.00 in0.0 mm 1.28 in32.5 mm
04:10 AM 52.5°F11.4°C 50.0°F10.0°C 91% Calm Calm 0.7 mph1.1 kmh 30.11 in1019.6 mb 0.00 in0.0 mm 0.00 in0.0 mm 1.28 in32.5 mm
04:09 AM 52.5°F11.4°C 50.0°F10.0°C 91% 1.6 mph SSE2.6 kmh SSE 2.2 mph3.5 kmh 30.11 in1019.6 mb 0.00 in0.0 mm 0.00 in0.0 mm 1.28 in32.5 mm
04:08 AM 52.5°F11.4°C 50.0°F10.0°C 91% 1.6 mph S2.6 kmh S 2.2 mph3.5 kmh 30.11 in1019.6 mb 0.00 in0.0 mm 0.00 in0.0 mm 1.28 in32.5 mm
04:07 AM 52.5°F11.4°C 50.0°F10.0°C 91% 0.7 mph S1.1 kmh S 2.2 mph3.5 kmh 30.11 in1019.6 mb 0.00 in0.0 mm 0.00 in0.0 mm 1.28 in32.5 mm
04:06 AM 52.7°F11.5°C 50.2°F10.1°C 91% 0.7 mph S1.1 kmh S 1.6 mph2.6 kmh 30.11 in1019.6 mb 0.00 in0.0 mm 0.00 in0.0 mm 1.28 in32.5 mm
04:05 AM 52.7°F11.5°C 50.2°F10.1°C 91% 0.7 mph S1.1 kmh S 2.2 mph3.5 kmh 30.11 in1019.6 mb 0.00 in0.0 mm 0.00 in0.0 mm 1.28 in32.5 mm
04:04 AM 52.7°F11.5°C 50.2°F10.1°C 91% Calm Calm 1.6 mph2.6 kmh 30.11 in1019.6 mb 0.00 in0.0 mm 0.00 in0.0 mm 1.28 in32.5 mm
04:03 AM 52.9°F11.6°C 50.3°F10.2°C 91% Calm Calm -- 30.12 in1020.0 mb 0.00 in0.0 mm 0.00 in0.0 mm 1.28 in32.5 mm
04:02 AM 52.9°F11.6°C 50.3°F10.2°C 91% Calm Calm -- 30.11 in1019.6 mb 0.00 in0.0 mm 0.00 in0.0 mm 1.28 in32.5 mm
04:01 AM 52.9°F11.6°C 50.3°F10.2°C 91% Calm Calm -- 30.12 in1020.0 mb 0.00 in0.0 mm 0.00 in0.0 mm 1.28 in32.5 mm
04:00 AM 52.9°F11.6°C 50.3°F10.2°C 91% Calm Calm -- 30.11 in1019.6 mb 0.00 in0.0 mm 0.00 in0.0 mm 1.28 in32.5 mm
03:59 AM 52.9°F11.6°C 50.3°F10.2°C 91% Calm Calm -- 30.11 in1019.6 mb 0.00 in0.0 mm 0.00 in0.0 mm 1.28 in32.5 mm
03:58 AM 52.7°F11.5°C 50.2°F10.1°C 91% 1.6 mph SSW2.6 kmh SSW 2.2 mph3.5 kmh 30.11 in1019.6 mb 0.00 in0.0 mm 0.00 in0.0 mm 1.28 in32.5 mm
03:57 AM 52.7°F11.5°C 50.2°F10.1°C 91% Calm Calm -- 30.11 in1019.6 mb 0.00 in0.0 mm 0.00 in0.0 mm 1.28 in32.5 mm
03:56 AM 52.9°F11.6°C 50.3°F10.2°C 91% Calm Calm -- 30.11 in1019.6 mb 0.00 in0.0 mm 0.00 in0.0 mm 1.28 in32.5 mm
03:55 AM 52.9°F11.6°C 50.3°F10.2°C 91% Calm Calm 0.7 mph1.1 kmh 30.11 in1019.6 mb 0.00 in0.0 mm 0.00 in0.0 mm 1.28 in32.5 mm
03:54 AM 53.1°F11.7°C 50.5°F10.3°C 91% Calm Calm 1.6 mph2.6 kmh 30.11 in1019.6 mb 0.00 in0.0 mm 0.00 in0.0 mm 1.28 in32.5 mm
03:53 AM 53.1°F11.7°C 50.5°F10.3°C 91% Calm Calm -- 30.11 in1019.6 mb 0.00 in0.0 mm 0.00 in0.0 mm 1.28 in32.5 mm
03:52 AM 53.1°F11.7°C 50.5°F10.3°C 91% Calm Calm 0.7 mph1.1 kmh 30.11 in1019.6 mb 0.00 in0.0 mm 0.00 in0.0 mm 1.28 in32.5 mm
03:51 AM 53.1°F11.7°C 50.5°F10.3°C 91% Calm Calm 0.7 mph1.1 kmh 30.11 in1019.6 mb 0.00 in0.0 mm 0.00 in0.0 mm 1.28 in32.5 mm
03:50 AM 53.1°F11.7°C 50.5°F10.3°C 91% Calm Calm 0.7 mph1.1 kmh 30.11 in1019.6 mb 0.00 in0.0 mm 0.00 in0.0 mm 1.28 in32.5 mm
03:49 AM 52.9°F11.6°C 50.3°F10.2°C 91% 1.6 mph NW2.6 kmh NW 4.5 mph7.2 kmh 30.11 in1019.6 mb 0.00 in0.0 mm 0.00 in0.0 mm 1.28 in32.5 mm
03:48 AM 52.9°F11.6°C 50.3°F10.2°C 91% 1.6 mph NW2.6 kmh NW 4.5 mph7.2 kmh 30.11 in1019.6 mb 0.00 in0.0 mm 0.00 in0.0 mm 1.28 in32.5 mm
03:47 AM 52.9°F11.6°C 50.3°F10.2°C 91% 1.6 mph NW2.6 kmh NW 4.5 mph7.2 kmh 30.11 in1019.6 mb 0.00 in0.0 mm 0.00 in0.0 mm 1.28 in32.5 mm
03:46 AM 52.7°F11.5°C 50.2°F10.1°C 91% Calm Calm -- 30.11 in1019.6 mb 0.00 in0.0 mm 0.00 in0.0 mm 1.28 in32.5 mm
03:45 AM 52.7°F11.5°C 50.2°F10.1°C 91% Calm Calm -- 30.11 in1019.6 mb 0.00 in0.0 mm 0.00 in0.0 mm 1.28 in32.5 mm
03:44 AM 52.7°F11.5°C 50.2°F10.1°C 91% Calm Calm 1.6 mph2.6 kmh 30.12 in1020.0 mb 0.00 in0.0 mm 0.00 in0.0 mm 1.28 in32.5 mm
03:43 AM 52.7°F11.5°C 50.2°F10.1°C 91% 0.7 mph S1.1 kmh S 1.6 mph2.6 kmh 30.11 in1019.6 mb 0.00 in0.0 mm 0.00 in0.0 mm 1.28 in32.5 mm
03:42 AM 52.7°F11.5°C 50.2°F10.1°C 91% 0.7 mph NE1.1 kmh NE 1.6 mph2.6 kmh 30.11 in1019.6 mb 0.00 in0.0 mm 0.00 in0.0 mm 1.28 in32.5 mm
03:41 AM 52.7°F11.5°C 50.2°F10.1°C 91% 1.6 mph S2.6 kmh S 3.1 mph5.0 kmh 30.11 in1019.6 mb 0.00 in0.0 mm 0.00 in0.0 mm 1.28 in32.5 mm
03:40 AM 52.7°F11.5°C 50.2°F10.1°C 91% 1.6 mph S2.6 kmh S 3.1 mph5.0 kmh 30.11 in1019.6 mb 0.00 in0.0 mm 0.00 in0.0 mm 1.28 in32.5 mm
03:39 AM 52.7°F11.5°C 50.2°F10.1°C 91% 1.6 mph S2.6 kmh S 3.1 mph5.0 kmh 30.11 in1019.6 mb 0.00 in0.0 mm 0.00 in0.0 mm 1.28 in32.5 mm
03:38 AM 52.5°F11.4°C 49.7°F9.8°C 90% 2.2 mph SE3.5 kmh SE 3.1 mph5.0 kmh 30.11 in1019.6 mb 0.00 in0.0 mm 0.00 in0.0 mm 1.28 in32.5 mm
03:37 AM 52.5°F11.4°C 49.7°F9.8°C 90% Calm Calm 3.1 mph5.0 kmh 30.11 in1019.6 mb 0.00 in0.0 mm 0.00 in0.0 mm 1.28 in32.5 mm
03:36 AM 52.7°F11.5°C 49.9°F9.9°C 90% 2.2 mph S3.5 kmh S 3.1 mph5.0 kmh 30.11 in1019.6 mb 0.00 in0.0 mm 0.00 in0.0 mm 1.28 in32.5 mm
03:35 AM 52.7°F11.5°C 49.9°F9.9°C 90% 2.2 mph S3.5 kmh S 3.1 mph5.0 kmh 30.11 in1019.6 mb 0.00 in0.0 mm 0.00 in0.0 mm 1.28 in32.5 mm
03:34 AM 52.7°F11.5°C 49.9°F9.9°C 90% 1.6 mph S2.6 kmh S 2.2 mph3.5 kmh 30.11 in1019.6 mb 0.00 in0.0 mm 0.00 in0.0 mm 1.28 in32.5 mm
03:33 AM 52.9°F11.6°C 50.0°F10.0°C 90% 0.7 mph S1.1 kmh S 1.6 mph2.6 kmh 30.12 in1020.0 mb 0.00 in0.0 mm 0.00 in0.0 mm 1.28 in32.5 mm
03:32 AM 52.9°F11.6°C 50.0°F10.0°C 90% 0.7 mph SW1.1 kmh SW 2.2 mph3.5 kmh 30.12 in1020.0 mb 0.00 in0.0 mm 0.00 in0.0 mm 1.28 in32.5 mm
03:31 AM 52.9°F11.6°C 50.0°F10.0°C 90% Calm Calm 1.6 mph2.6 kmh 30.11 in1019.6 mb 0.00 in0.0 mm 0.00 in0.0 mm 1.28 in32.5 mm
03:30 AM 52.7°F11.5°C 49.9°F9.9°C 90% 1.6 mph 2.6 kmh 3.1 mph5.0 kmh 30.12 in1020.0 mb 0.00 in0.0 mm 0.00 in0.0 mm 1.28 in32.5 mm
03:29 AM 52.7°F11.5°C 49.9°F9.9°C 90% 1.6 mph SE2.6 kmh SE 3.1 mph5.0 kmh 30.11 in1019.6 mb 0.00 in0.0 mm 0.00 in0.0 mm 1.28 in32.5 mm
03:28 AM 52.7°F11.5°C 49.9°F9.9°C 90% 1.6 mph SE2.6 kmh SE 3.1 mph5.0 kmh 30.11 in1019.6 mb 0.00 in0.0 mm 0.00 in0.0 mm 1.28 in32.5 mm
03:27 AM 52.7°F11.5°C 49.9°F9.9°C 90% 1.6 mph SE2.6 kmh SE 3.1 mph5.0 kmh 30.11 in1019.6 mb 1.28 in32.5 mm 76.54 in1944.1 mm 1.28 in32.5 mm
03:26 AM 52.9°F11.6°C 50.0°F10.0°C 90% 1.6 mph S2.6 kmh S 2.2 mph3.5 kmh 30.12 in1020.0 mb 0.00 in0.0 mm 0.00 in0.0 mm 0.00 in0.0 mm
03:25 AM 52.9°F11.6°C 50.0°F10.0°C 90% 0.7 mph 1.1 kmh 3.1 mph5.0 kmh 30.12 in1020.0 mb 0.00 in0.0 mm 0.00 in0.0 mm 0.00 in0.0 mm
03:24 AM 52.9°F11.6°C 50.0°F10.0°C 90% 0.7 mph 1.1 kmh 3.1 mph5.0 kmh 30.12 in1020.0 mb 0.00 in0.0 mm 0.00 in0.0 mm 0.00 in0.0 mm
03:23 AM 52.9°F11.6°C 50.0°F10.0°C 90% 0.7 mph 1.1 kmh 3.1 mph5.0 kmh 30.12 in1020.0 mb 0.00 in0.0 mm 0.00 in0.0 mm 0.00 in0.0 mm
03:22 AM 52.9°F11.6°C 50.0°F10.0°C 90% 1.6 mph SE2.6 kmh SE 2.2 mph3.5 kmh 30.12 in1020.0 mb 0.00 in0.0 mm 0.00 in0.0 mm 0.00 in0.0 mm
03:21 AM 53.1°F11.7°C 50.2°F10.1°C 90% 2.2 mph S3.5 kmh S 3.8 mph6.1 kmh 30.12 in1020.0 mb 0.00 in0.0 mm 0.00 in0.0 mm 0.00 in0.0 mm
03:20 AM 53.1°F11.7°C 50.2°F10.1°C 90% 3.1 mph SE5.0 kmh SE 3.8 mph6.1 kmh 30.12 in1020.0 mb 0.00 in0.0 mm 0.00 in0.0 mm 0.00 in0.0 mm
03:19 AM 53.1°F11.7°C 50.2°F10.1°C 90% 2.2 mph SE3.5 kmh SE 3.8 mph6.1 kmh 30.12 in1020.0 mb 0.00 in0.0 mm 0.00 in0.0 mm 0.00 in0.0 mm
03:18 AM 53.1°F11.7°C 50.2°F10.1°C 90% 2.2 mph SE3.5 kmh SE 3.8 mph6.1 kmh 30.12 in1020.0 mb 0.00 in0.0 mm 0.00 in0.0 mm 0.00 in0.0 mm
03:17 AM 53.1°F11.7°C 49.9°F9.9°C 89% 2.2 mph SE3.5 kmh SE 3.8 mph6.1 kmh 30.12 in1020.0 mb 0.00 in0.0 mm 0.00 in0.0 mm 0.00 in0.0 mm
03:16 AM 53.1°F11.7°C 49.9°F9.9°C 89% 2.2 mph SE3.5 kmh SE 3.8 mph6.1 kmh 30.12 in1020.0 mb 0.00 in0.0 mm 0.00 in0.0 mm 0.00 in0.0 mm
03:15 AM 53.1°F11.7°C 49.9°F9.9°C 89% 2.2 mph SE3.5 kmh SE 3.8 mph6.1 kmh 30.12 in1020.0 mb 0.00 in0.0 mm 0.00 in0.0 mm 0.00 in0.0 mm
03:14 AM 53.1°F11.7°C 49.9°F9.9°C 89% 0.7 mph SE1.1 kmh SE 1.6 mph2.6 kmh 30.12 in1020.0 mb 0.00 in0.0 mm 0.00 in0.0 mm 0.00 in0.0 mm
03:13 AM 53.2°F11.8°C 50.1°F10.1°C 89% 2.2 mph S3.5 kmh S 3.1 mph5.0 kmh 30.12 in1020.0 mb 0.00 in0.0 mm 0.00 in0.0 mm 0.00 in0.0 mm
03:12 AM 53.2°F11.8°C 50.1°F10.1°C 89% 2.2 mph S3.5 kmh S 3.1 mph5.0 kmh 30.12 in1020.0 mb 0.00 in0.0 mm 0.00 in0.0 mm 0.00 in0.0 mm
03:11 AM 53.2°F11.8°C 50.1°F10.1°C 89% 2.2 mph S3.5 kmh S 3.1 mph5.0 kmh 30.12 in1020.0 mb 0.00 in0.0 mm 0.00 in0.0 mm 0.00 in0.0 mm
03:10 AM 53.4°F11.9°C 50.6°F10.3°C 90% 1.6 mph SW2.6 kmh SW 3.1 mph5.0 kmh 30.12 in1020.0 mb 0.00 in0.0 mm 0.00 in0.0 mm 0.00 in0.0 mm
03:09 AM 53.4°F11.9°C 50.6°F10.3°C 90% 1.6 mph SW2.6 kmh SW 3.1 mph5.0 kmh 30.12 in1020.0 mb 0.00 in0.0 mm 0.00 in0.0 mm 0.00 in0.0 mm
03:08 AM 53.4°F11.9°C 50.6°F10.3°C 90% 1.6 mph SW2.6 kmh SW 3.1 mph5.0 kmh 30.12 in1020.0 mb 0.00 in0.0 mm 0.00 in0.0 mm 0.00 in0.0 mm
03:07 AM 53.4°F11.9°C 50.6°F10.3°C 90% Calm Calm 0.7 mph1.1 kmh 30.12 in1020.0 mb 0.00 in0.0 mm 0.00 in0.0 mm 0.00 in0.0 mm
03:06 AM 53.8°F12.1°C 50.6°F10.3°C 89% 0.7 mph S1.1 kmh S 1.6 mph2.6 kmh 30.12 in1020.0 mb 0.00 in0.0 mm 0.00 in0.0 mm 0.00 in0.0 mm
03:05 AM 53.8°F12.1°C 50.6°F10.3°C 89% 0.7 mph S1.1 kmh S 1.6 mph2.6 kmh 30.12 in1020.0 mb 0.00 in0.0 mm 0.00 in0.0 mm 0.00 in0.0 mm
03:04 AM 53.8°F12.1°C 50.6°F10.3°C 89% 0.7 mph S1.1 kmh S 1.6 mph2.6 kmh 30.12 in1020.0 mb 0.00 in0.0 mm 0.00 in0.0 mm 0.00 in0.0 mm
03:03 AM 53.8°F12.1°C 50.6°F10.3°C 89% 0.7 mph S1.1 kmh S 1.6 mph2.6 kmh 30.12 in1020.0 mb 0.00 in0.0 mm 0.00 in0.0 mm 0.00 in0.0 mm
03:02 AM 53.8°F12.1°C 50.6°F10.3°C 89% 0.7 mph S1.1 kmh S 1.6 mph2.6 kmh 30.12 in1020.0 mb 0.00 in0.0 mm 0.00 in0.0 mm 0.00 in0.0 mm
03:01 AM 53.8°F12.1°C 50.6°F10.3°C 89% 0.7 mph S1.1 kmh S 1.6 mph2.6 kmh 30.11 in1019.6 mb 0.00 in0.0 mm 0.00 in0.0 mm 0.00 in0.0 mm
03:00 AM 53.8°F12.1°C 50.6°F10.3°C 89% 0.7 mph S1.1 kmh S 1.6 mph2.6 kmh 30.11 in1019.6 mb 0.00 in0.0 mm 0.00 in0.0 mm 0.00 in0.0 mm
02:59 AM 53.8°F12.1°C 50.6°F10.3°C 89% 0.7 mph S1.1 kmh S 1.6 mph2.6 kmh 30.12 in1020.0 mb 0.00 in0.0 mm 0.00 in0.0 mm 0.00 in0.0 mm
02:58 AM 54.0°F12.2°C 50.8°F10.4°C 89% 0.7 mph NW1.1 kmh NW 1.6 mph2.6 kmh 30.12 in1020.0 mb 0.00 in0.0 mm 0.00 in0.0 mm 0.00 in0.0 mm
02:57 AM 54.0°F12.2°C 50.8°F10.4°C 89% Calm Calm -- 30.12 in1020.0 mb 0.00 in0.0 mm 0.00 in0.0 mm 0.00 in0.0 mm
02:56 AM 54.0°F12.2°C 50.8°F10.4°C 89% Calm Calm -- 30.12 in1020.0 mb 0.00 in0.0 mm 0.00 in0.0 mm 0.00 in0.0 mm
02:55 AM 54.0°F12.2°C 50.8°F10.4°C 89% Calm Calm -- 30.12 in1020.0 mb 0.00 in0.0 mm 0.00 in0.0 mm 0.00 in0.0 mm
02:54 AM 54.0°F12.2°C 50.8°F10.4°C 89% Calm Calm -- 30.11 in1019.6 mb 0.00 in0.0 mm 0.00 in0.0 mm 0.00 in0.0 mm
02:53 AM 54.0°F12.2°C 50.8°F10.4°C 89% Calm Calm -- 30.11 in1019.6 mb 0.00 in0.0 mm 0.00 in0.0 mm 0.00 in0.0 mm
02:52 AM 54.0°F12.2°C 50.8°F10.4°C 89% Calm Calm -- 30.11 in1019.6 mb 0.00 in0.0 mm 0.00 in0.0 mm 0.00 in0.0 mm
02:51 AM 54.0°F12.2°C 50.8°F10.4°C 89% Calm Calm 0.7 mph1.1 kmh 30.11 in1019.6 mb 0.00 in0.0 mm 0.00 in0.0 mm 0.00 in0.0 mm
02:50 AM 54.0°F12.2°C 50.8°F10.4°C 89% Calm Calm 0.7 mph1.1 kmh 30.11 in1019.6 mb 0.00 in0.0 mm 0.00 in0.0 mm 0.00 in0.0 mm
02:49 AM 54.0°F12.2°C 50.8°F10.4°C 89% 0.7 mph 1.1 kmh 1.6 mph2.6 kmh 30.11 in1019.6 mb 0.00 in0.0 mm 0.00 in0.0 mm 0.00 in0.0 mm
02:48 AM 54.0°F12.2°C 50.8°F10.4°C 89% 0.7 mph 1.1 kmh 2.2 mph3.5 kmh 30.11 in1019.6 mb 0.00 in0.0 mm 0.00 in0.0 mm 0.00 in0.0 mm
02:47 AM 54.0°F12.2°C 50.8°F10.4°C 89% Calm Calm 2.2 mph3.5 kmh 30.11 in1019.6 mb 0.00 in0.0 mm 0.00 in0.0 mm 0.00 in0.0 mm
02:46 AM 54.0°F12.2°C 50.8°F10.4°C 89% Calm Calm 1.6 mph2.6 kmh 30.11 in1019.6 mb 0.00 in0.0 mm 0.00 in0.0 mm 0.00 in0.0 mm
02:45 AM 54.0°F12.2°C 50.8°F10.4°C 89% Calm Calm -- 30.11 in1019.6 mb 0.00 in0.0 mm 0.00 in0.0 mm 0.00 in0.0 mm
02:44 AM 54.0°F12.2°C 50.8°F10.4°C 89% Calm Calm 0.7 mph1.1 kmh 30.11 in1019.6 mb 0.00 in0.0 mm 0.00 in0.0 mm 0.00 in0.0 mm
02:43 AM 54.0°F12.2°C 50.8°F10.4°C 89% 0.7 mph 1.1 kmh 2.2 mph3.5 kmh 30.11 in1019.6 mb 0.00 in0.0 mm 0.00 in0.0 mm 0.00 in0.0 mm
02:42 AM 54.0°F12.2°C 50.8°F10.4°C 89% Calm Calm 0.7 mph1.1 kmh 30.11 in1019.6 mb 0.00 in0.0 mm 0.00 in0.0 mm 0.00 in0.0 mm
02:41 AM 54.0°F12.2°C 50.8°F10.4°C 89% Calm Calm 1.6 mph2.6 kmh 30.11 in1019.6 mb 0.00 in0.0 mm 0.00 in0.0 mm 0.00 in0.0 mm
02:40 AM 53.8°F12.1°C 50.6°F10.3°C 89% 0.7 mph 1.1 kmh 2.2 mph3.5 kmh 30.11 in1019.6 mb 0.00 in0.0 mm 0.00 in0.0 mm 0.00 in0.0 mm
02:39 AM 53.8°F12.1°C 50.6°F10.3°C 89% 2.2 mph 3.5 kmh 3.8 mph6.1 kmh 30.11 in1019.6 mb 0.00 in0.0 mm 0.00 in0.0 mm 0.00 in0.0 mm
02:38 AM 53.8°F12.1°C 50.6°F10.3°C 89% 2.2 mph NE3.5 kmh NE 4.5 mph7.2 kmh 30.11 in1019.6 mb 0.00 in0.0 mm 0.00 in0.0 mm 0.00 in0.0 mm
02:37 AM 53.6°F12.0°C 50.4°F10.2°C 89% 0.7 mph NNE1.1 kmh NNE 3.1 mph5.0 kmh 30.11 in1019.6 mb 0.00 in0.0 mm 0.00 in0.0 mm 0.00 in0.0 mm
02:36 AM 53.6°F12.0°C 50.4°F10.2°C 89% 1.6 mph NW2.6 kmh NW 3.1 mph5.0 kmh 30.11 in1019.6 mb 0.00 in0.0 mm 0.00 in0.0 mm 0.00 in0.0 mm
02:35 AM 53.6°F12.0°C 50.4°F10.2°C 89% 2.2 mph NE3.5 kmh NE 3.8 mph6.1 kmh 30.11 in1019.6 mb 0.00 in0.0 mm 0.00 in0.0 mm 0.00 in0.0 mm
02:34 AM 53.4°F11.9°C 50.6°F10.3°C 90% 3.1 mph NE5.0 kmh NE 4.5 mph7.2 kmh 30.11 in1019.6 mb 0.00 in0.0 mm 0.00 in0.0 mm 0.00 in0.0 mm
02:33 AM 53.4°F11.9°C 50.3°F10.2°C 89% 2.2 mph 3.5 kmh 3.8 mph6.1 kmh 30.11 in1019.6 mb 0.00 in0.0 mm 0.00 in0.0 mm 0.00 in0.0 mm
02:32 AM 53.4°F11.9°C 50.3°F10.2°C 89% 2.2 mph 3.5 kmh 3.8 mph6.1 kmh 30.11 in1019.6 mb 0.00 in0.0 mm 0.00 in0.0 mm 0.00 in0.0 mm
02:31 AM 53.4°F11.9°C 50.3°F10.2°C 89% 2.2 mph 3.5 kmh 3.8 mph6.1 kmh 30.11 in1019.6 mb 0.00 in0.0 mm 0.00 in0.0 mm 0.00 in0.0 mm
02:30 AM 53.2°F11.8°C 50.1°F10.1°C 89% 0.7 mph E1.1 kmh E 2.2 mph3.5 kmh 30.11 in1019.6 mb 0.00 in0.0 mm 0.00 in0.0 mm 0.00 in0.0 mm
02:29 AM 53.2°F11.8°C 50.1°F10.1°C 89% 3.8 mph E6.1 kmh E 4.5 mph7.2 kmh 30.12 in1020.0 mb 0.00 in0.0 mm 0.00 in0.0 mm 0.00 in0.0 mm
02:28 AM 58.5°F14.7°C 36.6°F2.6°C 44% Calm Calm -- 29.89 in1012.2 mb 0.00 in0.0 mm 0.00 in0.0 mm 0.00 in0.0 mm
02:27 AM 53.1°F11.7°C 49.9°F9.9°C 89% 3.1 mph SE5.0 kmh SE 3.8 mph6.1 kmh 30.11 in1019.6 mb 0.00 in0.0 mm 0.00 in0.0 mm 0.00 in0.0 mm
02:26 AM 53.2°F11.8°C 50.1°F10.1°C 89% 0.7 mph SSE1.1 kmh SSE 3.1 mph5.0 kmh 30.12 in1020.0 mb 0.00 in0.0 mm 0.00 in0.0 mm 0.00 in0.0 mm
02:25 AM 53.2°F11.8°C 50.1°F10.1°C 89% 0.7 mph SSE1.1 kmh SSE 3.1 mph5.0 kmh 30.12 in1020.0 mb 0.00 in0.0 mm 0.00 in0.0 mm 0.00 in0.0 mm
02:24 AM 53.2°F11.8°C 50.1°F10.1°C 89% 1.6 mph S2.6 kmh S 2.2 mph3.5 kmh 30.11 in1019.6 mb 0.00 in0.0 mm 0.00 in0.0 mm 0.00 in0.0 mm
02:23 AM 53.4°F11.9°C 50.3°F10.2°C 89% 0.7 mph S1.1 kmh S 1.6 mph2.6 kmh 30.12 in1020.0 mb 0.00 in0.0 mm 0.00 in0.0 mm 0.00 in0.0 mm
02:22 AM 53.4°F11.9°C 50.3°F10.2°C 89% Calm Calm -- 30.11 in1019.6 mb 0.00 in0.0 mm 0.00 in0.0 mm 0.00 in0.0 mm
02:21 AM 53.4°F11.9°C 50.3°F10.2°C 89% Calm Calm -- 30.11 in1019.6 mb 0.00 in0.0 mm 0.00 in0.0 mm 0.00 in0.0 mm
02:20 AM 53.4°F11.9°C 50.3°F10.2°C 89% Calm Calm -- 30.11 in1019.6 mb 0.00 in0.0 mm 0.00 in0.0 mm 0.00 in0.0 mm
02:19 AM 53.6°F12.0°C 50.1°F10.1°C 88% Calm Calm 1.6 mph2.6 kmh 30.12 in1020.0 mb 0.00 in0.0 mm 0.00 in0.0 mm 0.00 in0.0 mm
02:18 AM 53.8°F12.1°C 50.3°F10.2°C 88% Calm Calm 3.8 mph6.1 kmh 30.11 in1019.6 mb 0.00 in0.0 mm 0.00 in0.0 mm 0.00 in0.0 mm
02:17 AM 53.8°F12.1°C 50.3°F10.2°C 88% Calm Calm 3.8 mph6.1 kmh 30.11 in1019.6 mb 0.00 in0.0 mm 0.00 in0.0 mm 0.00 in0.0 mm
02:16 AM 54.0°F12.2°C 50.5°F10.3°C 88% Calm Calm -- 30.12 in1020.0 mb 0.00 in0.0 mm 0.00 in0.0 mm 0.00 in0.0 mm
02:15 AM 54.0°F12.2°C 50.5°F10.3°C 88% Calm Calm -- 30.11 in1019.6 mb 0.00 in0.0 mm 0.00 in0.0 mm 0.00 in0.0 mm
02:14 AM 54.0°F12.2°C 50.5°F10.3°C 88% Calm Calm 0.7 mph1.1 kmh 30.11 in1019.6 mb 0.00 in0.0 mm 0.00 in0.0 mm 0.00 in0.0 mm
02:13 AM 54.1°F12.3°C 50.7°F10.4°C 88% 1.6 mph 2.6 kmh 5.4 mph8.7 kmh 30.11 in1019.6 mb 0.00 in0.0 mm 0.00 in0.0 mm 0.00 in0.0 mm
02:12 AM 54.1°F12.3°C 50.7°F10.4°C 88% 1.6 mph 2.6 kmh 5.4 mph8.7 kmh 30.11 in1019.6 mb 0.00 in0.0 mm 0.00 in0.0 mm 0.00 in0.0 mm
02:11 AM 54.1°F12.3°C 50.7°F10.4°C 88% 1.6 mph 2.6 kmh 5.4 mph8.7 kmh 30.11 in1019.6 mb 0.00 in0.0 mm 0.00 in0.0 mm 0.00 in0.0 mm
02:10 AM 54.1°F12.3°C 51.0°F10.6°C 89% Calm Calm -- 30.12 in1020.0 mb 0.00 in0.0 mm 0.00 in0.0 mm 0.00 in0.0 mm
02:09 AM 54.3°F12.4°C 51.2°F10.7°C 89% 0.7 mph WNW1.1 kmh WNW 2.2 mph3.5 kmh 30.11 in1019.6 mb 0.00 in0.0 mm 0.00 in0.0 mm 0.00 in0.0 mm
02:08 AM 54.5°F12.5°C 51.3°F10.7°C 89% Calm Calm 1.6 mph2.6 kmh 30.11 in1019.6 mb 0.00 in0.0 mm 0.00 in0.0 mm 0.00 in0.0 mm
02:07 AM 54.5°F12.5°C 51.3°F10.7°C 89% 0.7 mph E1.1 kmh E 3.8 mph6.1 kmh 30.12 in1020.0 mb 0.00 in0.0 mm 0.00 in0.0 mm 0.00 in0.0 mm
02:06 AM 54.5°F12.5°C 51.3°F10.7°C 89% 0.7 mph E1.1 kmh E 3.8 mph6.1 kmh 30.12 in1020.0 mb 0.00 in0.0 mm 0.00 in0.0 mm 0.00 in0.0 mm
02:05 AM 54.3°F12.4°C 51.2°F10.7°C 89% 0.7 mph 1.1 kmh 2.2 mph3.5 kmh 30.12 in1020.0 mb 0.00 in0.0 mm 0.00 in0.0 mm 0.00 in0.0 mm
02:04 AM 54.3°F12.4°C 51.2°F10.7°C 89% Calm Calm 3.1 mph5.0 kmh 30.11 in1019.6 mb 0.00 in0.0 mm 0.00 in0.0 mm 0.00 in0.0 mm
02:03 AM 54.3°F12.4°C 51.2°F10.7°C 89% Calm Calm 3.1 mph5.0 kmh 30.11 in1019.6 mb 0.00 in0.0 mm 0.00 in0.0 mm 0.00 in0.0 mm
02:02 AM 54.3°F12.4°C 51.2°F10.7°C 89% Calm Calm -- 30.11 in1019.6 mb 0.00 in0.0 mm 0.00 in0.0 mm 0.00 in0.0 mm
02:01 AM 54.3°F12.4°C 51.2°F10.7°C 89% Calm Calm -- 30.11 in1019.6 mb 0.00 in0.0 mm 0.00 in0.0 mm 0.00 in0.0 mm
02:00 AM 54.3°F12.4°C 51.2°F10.7°C 89% Calm Calm -- 30.11 in1019.6 mb 0.00 in0.0 mm 0.00 in0.0 mm 0.00 in0.0 mm
01:59 AM 54.3°F12.4°C 51.2°F10.7°C 89% Calm Calm 0.7 mph1.1 kmh 30.11 in1019.6 mb 0.00 in0.0 mm 0.00 in0.0 mm 0.00 in0.0 mm
01:58 AM 54.5°F12.5°C 51.3°F10.7°C 89% 3.1 mph 5.0 kmh 5.4 mph8.7 kmh 30.11 in1019.6 mb 0.00 in0.0 mm 0.00 in0.0 mm 0.00 in0.0 mm
01:57 AM 54.5°F12.5°C 51.3°F10.7°C 89% 3.1 mph 5.0 kmh 5.4 mph8.7 kmh 30.11 in1019.6 mb 0.00 in0.0 mm 0.00 in0.0 mm 0.00 in0.0 mm
01:56 AM 54.5°F12.5°C 51.3°F10.7°C 89% Calm Calm 2.2 mph3.5 kmh 30.11 in1019.6 mb 0.00 in0.0 mm 0.00 in0.0 mm 0.00 in0.0 mm
01:55 AM 54.5°F12.5°C 51.3°F10.7°C 89% Calm Calm -- 30.11 in1019.6 mb 0.00 in0.0 mm 0.00 in0.0 mm 0.00 in0.0 mm
01:54 AM 54.5°F12.5°C 51.3°F10.7°C 89% Calm Calm -- 30.11 in1019.6 mb 0.00 in0.0 mm 0.00 in0.0 mm 0.00 in0.0 mm
01:53 AM 54.5°F12.5°C 51.3°F10.7°C 89% Calm Calm -- 30.11 in1019.6 mb 0.00 in0.0 mm 0.00 in0.0 mm 0.00 in0.0 mm
01:52 AM 54.5°F12.5°C 51.3°F10.7°C 89% Calm Calm -- 30.11 in1019.6 mb 0.00 in0.0 mm 0.00 in0.0 mm 0.00 in0.0 mm
01:51 AM 54.5°F12.5°C 51.3°F10.7°C 89% 0.7 mph NE1.1 kmh NE 1.6 mph2.6 kmh 30.11 in1019.6 mb 0.00 in0.0 mm 0.00 in0.0 mm 0.00 in0.0 mm
01:50 AM 54.5°F12.5°C 51.3°F10.7°C 89% 3.1 mph 5.0 kmh 6.0 mph9.7 kmh 30.11 in1019.6 mb 0.00 in0.0 mm 0.00 in0.0 mm 0.00 in0.0 mm
01:49 AM 55.0°F12.8°C 52.2°F11.2°C 90% 2.2 mph NW3.5 kmh NW 3.1 mph5.0 kmh 30.11 in1019.6 mb 0.00 in0.0 mm 0.00 in0.0 mm 0.00 in0.0 mm
01:48 AM 55.0°F12.8°C 52.2°F11.2°C 90% 2.2 mph NW3.5 kmh NW 3.1 mph5.0 kmh 30.11 in1019.6 mb 0.00 in0.0 mm 0.00 in0.0 mm 0.00 in0.0 mm
01:47 AM 55.0°F12.8°C 52.2°F11.2°C 90% 2.2 mph NW3.5 kmh NW 3.1 mph5.0 kmh 30.11 in1019.6 mb 0.00 in0.0 mm 0.00 in0.0 mm 0.00 in0.0 mm
01:46 AM 55.4°F13.0°C 52.2°F11.2°C 89% Calm Calm 1.6 mph2.6 kmh 30.11 in1019.6 mb 0.00 in0.0 mm 0.00 in0.0 mm 0.00 in0.0 mm
01:45 AM 55.4°F13.0°C 52.5°F11.4°C 90% Calm Calm 1.6 mph2.6 kmh 30.12 in1020.0 mb 0.00 in0.0 mm 0.00 in0.0 mm 0.00 in0.0 mm
01:44 AM 55.6°F13.1°C 52.7°F11.5°C 90% Calm Calm 2.2 mph3.5 kmh 30.11 in1019.6 mb 0.00 in0.0 mm 0.00 in0.0 mm 0.00 in0.0 mm
01:43 AM 55.6°F13.1°C 52.7°F11.5°C 90% Calm Calm 3.8 mph6.1 kmh 30.11 in1019.6 mb 0.00 in0.0 mm 0.00 in0.0 mm 0.00 in0.0 mm
01:42 AM 55.6°F13.1°C 52.7°F11.5°C 90% 0.7 mph 1.1 kmh 3.1 mph5.0 kmh 30.11 in1019.6 mb 0.00 in0.0 mm 0.00 in0.0 mm 0.00 in0.0 mm
01:41 AM 55.6°F13.1°C 52.7°F11.5°C 90% 0.7 mph 1.1 kmh 3.1 mph5.0 kmh 30.11 in1019.6 mb 0.00 in0.0 mm 0.00 in0.0 mm 0.00 in0.0 mm
01:40 AM 55.6°F13.1°C 52.7°F11.5°C 90% 0.7 mph 1.1 kmh 3.1 mph5.0 kmh 30.11 in1019.6 mb 0.00 in0.0 mm 0.00 in0.0 mm 0.00 in0.0 mm
01:39 AM 55.6°F13.1°C 52.7°F11.5°C 90% 0.7 mph WNW1.1 kmh WNW 2.2 mph3.5 kmh 30.11 in1019.6 mb 0.00 in0.0 mm 0.00 in0.0 mm 0.00 in0.0 mm
01:38 AM 55.4°F13.0°C 52.5°F11.4°C 90% 2.2 mph NW3.5 kmh NW 5.4 mph8.7 kmh 30.11 in1019.6 mb 0.00 in0.0 mm 0.00 in0.0 mm 0.00 in0.0 mm
01:37 AM 55.4°F13.0°C 52.5°F11.4°C 90% 3.1 mph 5.0 kmh 4.5 mph7.2 kmh 30.11 in1019.6 mb 0.00 in0.0 mm 0.00 in0.0 mm 0.00 in0.0 mm
01:36 AM 55.4°F13.0°C 52.5°F11.4°C 90% 5.4 mph NNW8.7 kmh NNW 8.3 mph13.4 kmh 30.11 in1019.6 mb 0.00 in0.0 mm 0.00 in0.0 mm 0.00 in0.0 mm
01:35 AM 55.2°F12.9°C 52.6°F11.4°C 91% 4.5 mph NW7.2 kmh NW 8.3 mph13.4 kmh 30.11 in1019.6 mb 0.00 in0.0 mm 0.00 in0.0 mm 0.00 in0.0 mm
01:34 AM 55.0°F12.8°C 52.2°F11.2°C 90% 1.6 mph 2.6 kmh 6.0 mph9.7 kmh 30.11 in1019.6 mb 0.00 in0.0 mm 0.00 in0.0 mm 0.00 in0.0 mm
01:33 AM 55.0°F12.8°C 52.2°F11.2°C 90% 3.8 mph NW6.1 kmh NW 7.6 mph12.2 kmh 30.11 in1019.6 mb 0.00 in0.0 mm 0.00 in0.0 mm 0.00 in0.0 mm
01:32 AM 54.9°F12.7°C 52.0°F11.1°C 90% 8.3 mph NW13.4 kmh NW 10.7 mph17.2 kmh 30.11 in1019.6 mb 0.00 in0.0 mm 0.00 in0.0 mm 0.00 in0.0 mm
01:31 AM 54.9°F12.7°C 52.0°F11.1°C 90% 3.1 mph NW5.0 kmh NW 6.9 mph11.1 kmh 30.11 in1019.6 mb 0.00 in0.0 mm 0.00 in0.0 mm 0.00 in0.0 mm
01:30 AM 54.7°F12.6°C 51.8°F11.0°C 90% 2.2 mph 3.5 kmh 3.8 mph6.1 kmh 30.11 in1019.6 mb 0.00 in0.0 mm 0.00 in0.0 mm 0.00 in0.0 mm
01:29 AM 54.7°F12.6°C 51.8°F11.0°C 90% 3.1 mph 5.0 kmh 4.5 mph7.2 kmh 30.11 in1019.6 mb 0.00 in0.0 mm 0.00 in0.0 mm 0.00 in0.0 mm
01:28 AM 54.7°F12.6°C 51.8°F11.0°C 90% 1.6 mph WSW2.6 kmh WSW 3.8 mph6.1 kmh 30.11 in1019.6 mb 0.00 in0.0 mm 0.00 in0.0 mm 0.00 in0.0 mm
01:27 AM 54.7°F12.6°C 51.8°F11.0°C 90% 1.6 mph NW2.6 kmh NW 3.8 mph6.1 kmh 30.11 in1019.6 mb 0.00 in0.0 mm 0.00 in0.0 mm 0.00 in0.0 mm
01:26 AM 54.5°F12.5°C 51.6°F10.9°C 90% 3.8 mph NNW6.1 kmh NNW 5.4 mph8.7 kmh 30.11 in1019.6 mb 0.00 in0.0 mm 0.00 in0.0 mm 0.00 in0.0 mm
01:25 AM 54.5°F12.5°C 51.6°F10.9°C 90% 1.6 mph 2.6 kmh 3.1 mph5.0 kmh 30.11 in1019.6 mb 0.00 in0.0 mm 0.00 in0.0 mm 0.00 in0.0 mm
01:24 AM 54.5°F12.5°C 51.3°F10.7°C 89% 2.2 mph W3.5 kmh W 3.8 mph6.1 kmh 30.11 in1019.6 mb 0.00 in0.0 mm 0.00 in0.0 mm 0.00 in0.0 mm
01:23 AM 54.3°F12.4°C 51.2°F10.7°C 89% 3.8 mph SE6.1 kmh SE 5.4 mph8.7 kmh 30.11 in1019.6 mb 0.00 in0.0 mm 0.00 in0.0 mm 0.00 in0.0 mm
01:22 AM 54.1°F12.3°C 51.0°F10.6°C 89% 3.1 mph NNW5.0 kmh NNW 4.5 mph7.2 kmh 30.11 in1019.6 mb 0.00 in0.0 mm 0.00 in0.0 mm 0.00 in0.0 mm
01:21 AM 54.1°F12.3°C 51.0°F10.6°C 89% 3.1 mph NNW5.0 kmh NNW 3.8 mph6.1 kmh 30.11 in1019.6 mb 0.00 in0.0 mm 0.00 in0.0 mm 0.00 in0.0 mm
01:20 AM 54.1°F12.3°C 51.0°F10.6°C 89% 1.6 mph NNW2.6 kmh NNW 3.1 mph5.0 kmh 30.12 in1020.0 mb 0.00 in0.0 mm 0.00 in0.0 mm 0.00 in0.0 mm
01:19 AM 54.0°F12.2°C 50.8°F10.4°C 89% 1.6 mph NW2.6 kmh NW 3.1 mph5.0 kmh 30.11 in1019.6 mb 0.00 in0.0 mm 0.00 in0.0 mm 0.00 in0.0 mm
01:18 AM 54.0°F12.2°C 50.8°F10.4°C 89% 1.6 mph NW2.6 kmh NW 3.1 mph5.0 kmh 30.11 in1019.6 mb 0.00 in0.0 mm 0.00 in0.0 mm 0.00 in0.0 mm
01:17 AM 54.0°F12.2°C 50.8°F10.4°C 89% 0.7 mph NNW1.1 kmh NNW 2.2 mph3.5 kmh 30.11 in1019.6 mb 0.00 in0.0 mm 0.00 in0.0 mm 0.00 in0.0 mm
01:16 AM 53.8°F12.1°C 50.6°F10.3°C 89% Calm Calm 3.1 mph5.0 kmh 30.11 in1019.6 mb 0.00 in0.0 mm 0.00 in0.0 mm 0.00 in0.0 mm
01:15 AM 53.8°F12.1°C 50.6°F10.3°C 89% Calm Calm 3.1 mph5.0 kmh 30.11 in1019.6 mb 0.00 in0.0 mm 0.00 in0.0 mm 0.00 in0.0 mm
01:14 AM 53.8°F12.1°C 50.3°F10.2°C 88% Calm Calm 2.2 mph3.5 kmh 30.11 in1019.6 mb 0.00 in0.0 mm 0.00 in0.0 mm 0.00 in0.0 mm
01:13 AM 53.6°F12.0°C 50.1°F10.1°C 88% 3.1 mph NNW5.0 kmh NNW 5.4 mph8.7 kmh 30.11 in1019.6 mb 0.00 in0.0 mm 0.00 in0.0 mm 0.00 in0.0 mm
01:12 AM 53.4°F11.9°C 50.3°F10.2°C 89% 1.6 mph NNW2.6 kmh NNW 3.8 mph6.1 kmh 30.11 in1019.6 mb 0.00 in0.0 mm 0.00 in0.0 mm 0.00 in0.0 mm
01:11 AM 53.4°F11.9°C 50.3°F10.2°C 89% 1.6 mph NNW2.6 kmh NNW 3.8 mph6.1 kmh 30.11 in1019.6 mb 0.00 in0.0 mm 0.00 in0.0 mm 0.00 in0.0 mm
01:10 AM 53.4°F11.9°C 50.3°F10.2°C 89% Calm Calm -- 30.11 in1019.6 mb 0.00 in0.0 mm 0.00 in0.0 mm 0.00 in0.0 mm
01:09 AM 53.4°F11.9°C 50.3°F10.2°C 89% 0.7 mph 1.1 kmh 2.2 mph3.5 kmh 30.11 in1019.6 mb 0.00 in0.0 mm 0.00 in0.0 mm 0.00 in0.0 mm
01:08 AM 53.4°F11.9°C 50.3°F10.2°C 89% Calm Calm 0.7 mph1.1 kmh 30.11 in1019.6 mb 0.00 in0.0 mm 0.00 in0.0 mm 0.00 in0.0 mm
01:07 AM 53.4°F11.9°C 50.3°F10.2°C 89% Calm Calm -- 30.11 in1019.6 mb 0.00 in0.0 mm 0.00 in0.0 mm 0.00 in0.0 mm
01:06 AM 53.8°F12.1°C 50.0°F10.0°C 87% Calm Calm 1.6 mph2.6 kmh 30.11 in1019.6 mb 0.00 in0.0 mm 0.00 in0.0 mm 0.00 in0.0 mm
01:05 AM 53.8°F12.1°C 50.0°F10.0°C 87% Calm Calm 1.6 mph2.6 kmh 30.11 in1019.6 mb 0.00 in0.0 mm 0.00 in0.0 mm 0.00 in0.0 mm
01:04 AM 53.8°F12.1°C 50.0°F10.0°C 87% Calm Calm 1.6 mph2.6 kmh 30.11 in1019.6 mb 0.00 in0.0 mm 0.00 in0.0 mm 0.00 in0.0 mm
01:03 AM 53.8°F12.1°C 50.0°F10.0°C 87% Calm Calm 1.6 mph2.6 kmh 30.11 in1019.6 mb 0.00 in0.0 mm 0.00 in0.0 mm 0.00 in0.0 mm
01:02 AM 53.8°F12.1°C 50.0°F10.0°C 87% Calm Calm 1.6 mph2.6 kmh 30.11 in1019.6 mb 0.00 in0.0 mm 0.00 in0.0 mm 0.00 in0.0 mm
01:01 AM 53.8°F12.1°C 50.0°F10.0°C 87% Calm Calm 1.6 mph2.6 kmh 30.11 in1019.6 mb 0.00 in0.0 mm 0.00 in0.0 mm 0.00 in0.0 mm
01:00 AM 53.8°F12.1°C 50.0°F10.0°C 87% Calm Calm 1.6 mph2.6 kmh 30.11 in1019.6 mb 0.00 in0.0 mm 0.00 in0.0 mm 0.00 in0.0 mm
12:59 AM 53.8°F12.1°C 50.0°F10.0°C 87% Calm Calm 1.6 mph2.6 kmh 30.11 in1019.6 mb 0.00 in0.0 mm 0.00 in0.0 mm 0.00 in0.0 mm
12:58 AM 54.0°F12.2°C 50.2°F10.1°C 87% 0.7 mph S1.1 kmh S 1.6 mph2.6 kmh 30.11 in1019.6 mb 0.00 in0.0 mm 0.00 in0.0 mm 0.00 in0.0 mm
12:57 AM 54.0°F12.2°C 50.2°F10.1°C 87% 0.7 mph S1.1 kmh S 1.6 mph2.6 kmh 30.12 in1020.0 mb 0.00 in0.0 mm 0.00 in0.0 mm 0.00 in0.0 mm
12:56 AM 54.0°F12.2°C 50.2°F10.1°C 87% Calm Calm 1.6 mph2.6 kmh 30.11 in1019.6 mb 0.00 in0.0 mm 0.00 in0.0 mm 0.00 in0.0 mm
12:55 AM 54.0°F12.2°C 50.2°F10.1°C 87% Calm Calm -- 30.11 in1019.6 mb 0.00 in0.0 mm 0.00 in0.0 mm 0.00 in0.0 mm
12:54 AM 54.0°F12.2°C 49.9°F9.9°C 86% 1.6 mph SE2.6 kmh SE 3.1 mph5.0 kmh 30.11 in1019.6 mb 0.00 in0.0 mm 0.00 in0.0 mm 0.00 in0.0 mm
12:53 AM 54.0°F12.2°C 49.9°F9.9°C 86% 1.6 mph SE2.6 kmh SE 3.1 mph5.0 kmh 30.11 in1019.6 mb 0.00 in0.0 mm 0.00 in0.0 mm 0.00 in0.0 mm
12:52 AM 54.1°F12.3°C 50.0°F10.0°C 86% 1.6 mph E2.6 kmh E 2.2 mph3.5 kmh 30.11 in1019.6 mb 0.00 in0.0 mm 0.00 in0.0 mm 0.00 in0.0 mm
12:51 AM 54.1°F12.3°C 50.0°F10.0°C 86% 2.2 mph E3.5 kmh E 3.8 mph6.1 kmh 30.11 in1019.6 mb 0.00 in0.0 mm 0.00 in0.0 mm 0.00 in0.0 mm
12:50 AM 54.1°F12.3°C 50.0°F10.0°C 86% 1.6 mph SE2.6 kmh SE 3.8 mph6.1 kmh 30.11 in1019.6 mb 0.00 in0.0 mm 0.00 in0.0 mm 0.00 in0.0 mm
12:49 AM 54.1°F12.3°C 50.0°F10.0°C 86% 3.1 mph SE5.0 kmh SE 4.5 mph7.2 kmh 30.11 in1019.6 mb 0.00 in0.0 mm 0.00 in0.0 mm 0.00 in0.0 mm
12:48 AM 54.3°F12.4°C 50.2°F10.1°C 86% 3.8 mph SE6.1 kmh SE 4.5 mph7.2 kmh 30.11 in1019.6 mb 0.00 in0.0 mm 0.00 in0.0 mm 0.00 in0.0 mm
12:47 AM 54.3°F12.4°C 50.2°F10.1°C 86% 4.5 mph SE7.2 kmh SE 5.4 mph8.7 kmh 30.11 in1019.6 mb 0.00 in0.0 mm 0.00 in0.0 mm 0.00 in0.0 mm
12:46 AM 54.3°F12.4°C 49.9°F9.9°C 85% 4.5 mph SE7.2 kmh SE 5.4 mph8.7 kmh 30.11 in1019.6 mb 0.00 in0.0 mm 0.00 in0.0 mm 0.00 in0.0 mm
12:45 AM 54.3°F12.4°C 49.9°F9.9°C 85% 4.5 mph SE7.2 kmh SE 6.0 mph9.7 kmh 30.11 in1019.6 mb 0.00 in0.0 mm 0.00 in0.0 mm 0.00 in0.0 mm
12:44 AM 54.3°F12.4°C 49.9°F9.9°C 85% 4.5 mph SE7.2 kmh SE 5.4 mph8.7 kmh 30.11 in1019.6 mb 0.00 in0.0 mm 0.00 in0.0 mm 0.00 in0.0 mm
12:43 AM 54.3°F12.4°C 49.9°F9.9°C 85% 3.8 mph SE6.1 kmh SE 5.4 mph8.7 kmh 30.11 in1019.6 mb 0.00 in0.0 mm 0.00 in0.0 mm 0.00 in0.0 mm
12:42 AM 54.5°F12.5°C 50.1°F10.1°C 85% 2.2 mph SE3.5 kmh SE 4.5 mph7.2 kmh 30.11 in1019.6 mb 0.00 in0.0 mm 0.00 in0.0 mm 0.00 in0.0 mm
12:41 AM 54.5°F12.5°C 50.1°F10.1°C 85% 2.2 mph SE3.5 kmh SE 4.5 mph7.2 kmh 30.11 in1019.6 mb 0.00 in0.0 mm 0.00 in0.0 mm 0.00 in0.0 mm
12:40 AM 54.5°F12.5°C 50.1°F10.1°C 85% 2.2 mph SE3.5 kmh SE 4.5 mph7.2 kmh 30.11 in1019.6 mb 0.00 in0.0 mm 0.00 in0.0 mm 0.00 in0.0 mm
12:39 AM 54.7°F12.6°C 50.3°F10.2°C 85% Calm Calm 1.6 mph2.6 kmh 30.11 in1019.6 mb 0.00 in0.0 mm 0.00 in0.0 mm 0.00 in0.0 mm
12:38 AM 54.9°F12.7°C 50.4°F10.2°C 85% Calm Calm -- 30.11 in1019.6 mb 0.00 in0.0 mm 0.00 in0.0 mm 0.00 in0.0 mm
12:37 AM 54.9°F12.7°C 50.4°F10.2°C 85% Calm Calm -- 30.11 in1019.6 mb 0.00 in0.0 mm 0.00 in0.0 mm 0.00 in0.0 mm
12:36 AM 55.0°F12.8°C 50.6°F10.3°C 85% Calm Calm -- 30.11 in1019.6 mb 0.00 in0.0 mm 0.00 in0.0 mm 0.00 in0.0 mm
12:35 AM 55.0°F12.8°C 50.6°F10.3°C 85% Calm Calm -- 30.11 in1019.6 mb 0.00 in0.0 mm 0.00 in0.0 mm 0.00 in0.0 mm
12:34 AM 55.2°F12.9°C 50.8°F10.4°C 85% Calm Calm -- 30.11 in1019.6 mb 0.00 in0.0 mm 0.00 in0.0 mm 0.00 in0.0 mm
12:33 AM 55.2°F12.9°C 50.8°F10.4°C 85% Calm Calm -- 30.11 in1019.6 mb 0.00 in0.0 mm 0.00 in0.0 mm 0.00 in0.0 mm
12:32 AM 55.2°F12.9°C 50.8°F10.4°C 85% Calm Calm -- 30.11 in1019.6 mb 0.00 in0.0 mm 0.00 in0.0 mm 0.00 in0.0 mm
12:31 AM 55.2°F12.9°C 50.8°F10.4°C 85% Calm Calm -- 30.12 in1020.0 mb 0.00 in0.0 mm 0.00 in0.0 mm 0.00 in0.0 mm
12:30 AM 55.2°F12.9°C 50.8°F10.4°C 85% Calm Calm 0.7 mph1.1 kmh 30.11 in1019.6 mb 0.00 in0.0 mm 0.00 in0.0 mm 0.00 in0.0 mm
12:29 AM 55.2°F12.9°C 50.8°F10.4°C 85% Calm Calm -- 30.11 in1019.6 mb 0.00 in0.0 mm 0.00 in0.0 mm 0.00 in0.0 mm
12:28 AM 55.2°F12.9°C 50.8°F10.4°C 85% 1.6 mph NW2.6 kmh NW 5.4 mph8.7 kmh 30.12 in1020.0 mb 0.00 in0.0 mm 0.00 in0.0 mm 0.00 in0.0 mm
12:27 AM 55.2°F12.9°C 50.8°F10.4°C 85% 1.6 mph NW2.6 kmh NW 5.4 mph8.7 kmh 30.12 in1020.0 mb 0.00 in0.0 mm 0.00 in0.0 mm 0.00 in0.0 mm
12:26 AM 55.4°F13.0°C 51.0°F10.6°C 85% 0.7 mph SW1.1 kmh SW 1.6 mph2.6 kmh 30.12 in1020.0 mb 0.00 in0.0 mm 0.00 in0.0 mm 0.00 in0.0 mm
12:25 AM 55.4°F13.0°C 51.0°F10.6°C 85% Calm Calm 1.6 mph2.6 kmh 30.12 in1020.0 mb 0.00 in0.0 mm 0.00 in0.0 mm 0.00 in0.0 mm
12:24 AM 55.4°F13.0°C 51.0°F10.6°C 85% 0.7 mph NW1.1 kmh NW 2.2 mph3.5 kmh 30.12 in1020.0 mb 0.00 in0.0 mm 0.00 in0.0 mm 0.00 in0.0 mm
12:23 AM 55.4°F13.0°C 51.0°F10.6°C 85% Calm Calm 1.6 mph2.6 kmh 30.12 in1020.0 mb 0.00 in0.0 mm 0.00 in0.0 mm 0.00 in0.0 mm
12:22 AM 55.6°F13.1°C 51.1°F10.6°C 85% Calm Calm 1.6 mph2.6 kmh 30.12 in1020.0 mb 0.00 in0.0 mm 0.00 in0.0 mm 0.00 in0.0 mm
12:21 AM 55.6°F13.1°C 51.1°F10.6°C 85% 0.7 mph NW1.1 kmh NW 1.6 mph2.6 kmh 30.12 in1020.0 mb 0.00 in0.0 mm 0.00 in0.0 mm 0.00 in0.0 mm
12:20 AM 55.6°F13.1°C 51.1°F10.6°C 85% Calm Calm -- 30.12 in1020.0 mb 0.00 in0.0 mm 0.00 in0.0 mm 0.00 in0.0 mm
12:19 AM 55.6°F13.1°C 51.1°F10.6°C 85% Calm Calm 2.2 mph3.5 kmh 30.11 in1019.6 mb 0.00 in0.0 mm 0.00 in0.0 mm 0.00 in0.0 mm
12:18 AM 55.8°F13.2°C 51.3°F10.7°C 85% Calm Calm -- 30.11 in1019.6 mb 0.00 in0.0 mm 0.00 in0.0 mm 0.00 in0.0 mm
12:17 AM 55.8°F13.2°C 51.3°F10.7°C 85% Calm Calm -- 30.11 in1019.6 mb 0.00 in0.0 mm 0.00 in0.0 mm 0.00 in0.0 mm
12:16 AM 55.8°F13.2°C 51.3°F10.7°C 85% Calm Calm -- 30.11 in1019.6 mb 0.00 in0.0 mm 0.00 in0.0 mm 0.00 in0.0 mm
12:15 AM 55.8°F13.2°C 51.3°F10.7°C 85% Calm Calm -- 30.11 in1019.6 mb 0.00 in0.0 mm 0.00 in0.0 mm 0.00 in0.0 mm
12:14 AM 55.9°F13.3°C 51.5°F10.8°C 85% Calm Calm 2.2 mph3.5 kmh 30.11 in1019.6 mb 0.00 in0.0 mm 0.00 in0.0 mm 0.00 in0.0 mm
12:13 AM 55.9°F13.3°C 51.5°F10.8°C 85% 2.2 mph NE3.5 kmh NE 3.8 mph6.1 kmh 30.11 in1019.6 mb 0.00 in0.0 mm 0.00 in0.0 mm 0.00 in0.0 mm
12:12 AM 55.9°F13.3°C 51.5°F10.8°C 85% 3.8 mph 6.1 kmh 4.5 mph7.2 kmh 30.11 in1019.6 mb 0.00 in0.0 mm 0.00 in0.0 mm 0.00 in0.0 mm
12:11 AM 55.9°F13.3°C 51.5°F10.8°C 85% 3.1 mph 5.0 kmh 5.4 mph8.7 kmh 30.11 in1019.6 mb 0.00 in0.0 mm 0.00 in0.0 mm 0.00 in0.0 mm
12:10 AM 55.9°F13.3°C 51.8°F11.0°C 86% 4.5 mph NE7.2 kmh NE 6.0 mph9.7 kmh 30.11 in1019.6 mb 0.00 in0.0 mm 0.00 in0.0 mm 0.00 in0.0 mm
12:09 AM 56.1°F13.4°C 52.0°F11.1°C 86% 3.1 mph 5.0 kmh 4.5 mph7.2 kmh 30.11 in1019.6 mb 0.00 in0.0 mm 0.00 in0.0 mm 0.00 in0.0 mm
12:08 AM 56.3°F13.5°C 52.2°F11.2°C 86% 3.8 mph NE6.1 kmh NE 5.4 mph8.7 kmh 30.11 in1019.6 mb 0.00 in0.0 mm 0.00 in0.0 mm 0.00 in0.0 mm
12:07 AM 56.3°F13.5°C 52.2°F11.2°C 86% 4.5 mph NE7.2 kmh NE 6.0 mph9.7 kmh 30.11 in1019.6 mb 0.00 in0.0 mm 0.00 in0.0 mm 0.00 in0.0 mm
12:06 AM 56.7°F13.7°C 52.5°F11.4°C 86% 5.4 mph NE8.7 kmh NE 6.0 mph9.7 kmh 30.11 in1019.6 mb 0.00 in0.0 mm 0.00 in0.0 mm 0.00 in0.0 mm
12:05 AM 56.7°F13.7°C 52.5°F11.4°C 86% 3.8 mph NE6.1 kmh NE 5.4 mph8.7 kmh 30.11 in1019.6 mb 0.00 in0.0 mm 0.00 in0.0 mm 0.00 in0.0 mm
12:04 AM 56.7°F13.7°C 52.5°F11.4°C 86% 3.1 mph NE5.0 kmh NE 4.5 mph7.2 kmh 30.11 in1019.6 mb 0.00 in0.0 mm 0.00 in0.0 mm 0.00 in0.0 mm
12:03 AM 56.8°F13.8°C 52.7°F11.5°C 86% 3.1 mph 5.0 kmh 5.4 mph8.7 kmh 30.11 in1019.6 mb 0.00 in0.0 mm 0.00 in0.0 mm 0.00 in0.0 mm
12:02 AM 56.8°F13.8°C 52.7°F11.5°C 86% 3.1 mph 5.0 kmh 5.4 mph8.7 kmh 30.11 in1019.6 mb 0.00 in0.0 mm 0.00 in0.0 mm 0.00 in0.0 mm
12:01 AM 56.8°F13.8°C 52.7°F11.5°C 86% 0.7 mph NE1.1 kmh NE 2.2 mph3.5 kmh 30.11 in1019.6 mb 0.00 in0.0 mm 0.00 in0.0 mm 0.00 in0.0 mm
12:00 AM 56.8°F13.8°C 52.7°F11.5°C 86% 3.1 mph 5.0 kmh 5.4 mph8.7 kmh 30.11 in1019.6 mb 0.00 in0.0 mm 0.00 in0.0 mm 0.00 in0.0 mm